Asotin, WA (99402)

10:40 PM PDT on October 21, 2014 (GMT -0700)
Nick's Weather Station | Change Station
CLOSE
Current Station
Personal Weather Station
Location: Lewiston, ID
Elevation: 1076 ft
Nearby Weather Stations

Elev 1076 ft 46.37 °N, 117.04 °W | Updated 6 seconds ago

Clear
Clear
48.8 °F
Feels Like 49 °F
N
0.0
Wind Variable Wind from ESE
Gusts 0.0 mph

Today
High -- | Low -- °F
--% Chance of Precip.
Yesterday
High -- | Low -- °F
Precip. -- in
7:13 AM 5:50 PM
Waning Crescent, 3% visible
Pressure 30.00 in
Visibility 10.0 miles
Clouds Clear
Windchill 49 °F
Dew Point 38 °F
Humidity 65%
Rainfall 0.00 in
Snow Depth 0 in
UV 0 out of 12
Pollen 1.60 out of 12
Air Quality Not available.
Flu Activity Sporadic
METAR KLWS 220456Z AUTO 13005KT 10SM CLR 09/04 A2999 RMK AO2 SLP159 T00890044

More Conditions Fewer Conditions

Pressure 30.00 in
Visibility 10.0 miles
Clouds Clear
Windchill 49 °F
Dew Point 38 °F
Humidity 65%
Rainfall 0.00 in
Snow Depth 0 in
UV 0 out of 12
Pollen 1.60 out of 12
Air Quality Not available.
Flu Activity Sporadic
METAR KLWS 220456Z AUTO 13005KT 10SM CLR 09/04 A2999 RMK AO2 SLP159 T00890044

More Conditions Fewer Conditions

10-Day Weather Forecast

Almanac

Astronomy

Oct. 21, 2014 Rise Set
Actual Time 7:13 AM PDT 5:50 PM PDT
Civil Twilight 6:43 AM PDT 6:21 PM PDT
Nautical Twilight 6:08 AM PDT 6:56 PM PDT
Astronomical Twilight 5:33 AM PDT 7:31 PM PDT
Moon 4:55 AM PDT (10/21) 4:53 PM PDT (10/21)
Length of Visible Light 11h 38m
Length of Day
10h 37m
Tomorrow will be 3m 6s shorter.
Waning Crescent, 3% of the Moon is Illuminated
Oct 22
Waning Crescent
Oct 23
New
Oct 30
First Quarter
Nov 6
Full
Nov 14
Last Quarter

Yesterday's Extremes

State Highs State Lows

Community

WunderPhotos

Upload Photos

1,763,886 photos uploaded!

Nearby

Snow Depth

Station Depth Elevation
Sourdough Gulch 0 in 4000 ft
Spruce Springs 1 in 5700 ft
Quartz Peak 1 in 4700 ft
Bunchgrass Meadow 0 in 5000 ft
Trough 0 in 5300 ft

Earthquake Activity

City Distance Mag. Time & Date
No recent earthquake activity has been reported nearby.
Minimum magnitude displayed is 2.5.

Coastal Water Temperatures

Place Temperature
No Stations Reporting

Nearby Weather Stations